createdAt,value
2023-06-22T00:00:43.672Z,19.36
2023-06-22T00:03:12.251Z,19.35
2023-06-22T00:05:40.943Z,19.37
2023-06-22T00:08:09.155Z,19.37
2023-06-22T00:10:37.440Z,19.35
2023-06-22T00:13:05.854Z,19.29
2023-06-22T00:15:35.564Z,19.29
2023-06-22T00:18:04.145Z,19.26
2023-06-22T00:20:33.782Z,19.25
2023-06-22T00:23:02.769Z,19.24
2023-06-22T00:25:30.962Z,19.22
2023-06-22T00:27:59.190Z,19.23
2023-06-22T00:30:27.861Z,19.24
2023-06-22T00:32:58.002Z,19.21
2023-06-22T00:35:29.973Z,19.18
2023-06-22T00:38:02.305Z,19.18
2023-06-22T00:40:30.946Z,19.14
2023-06-22T00:42:59.685Z,19.13
2023-06-22T00:45:29.004Z,19.08
2023-06-22T00:48:00.305Z,19.04
2023-06-22T00:50:35.064Z,19.02
2023-06-22T00:53:10.220Z,19.00
2023-06-22T00:55:40.271Z,18.95
2023-06-22T00:58:12.134Z,18.92
2023-06-22T01:00:41.428Z,18.91
2023-06-22T01:03:12.132Z,18.88
2023-06-22T01:05:41.693Z,18.83
2023-06-22T01:08:26.447Z,18.82
2023-06-22T01:11:00.823Z,18.78
2023-06-22T01:13:35.197Z,18.76
2023-06-22T01:16:05.788Z,18.74
2023-06-22T01:18:39.078Z,18.73
2023-06-22T01:21:09.794Z,18.71
2023-06-22T01:23:56.378Z,18.72
2023-06-22T01:26:33.679Z,18.69
2023-06-22T01:29:06.233Z,18.67
2023-06-22T01:31:36.137Z,18.60
2023-06-22T01:34:08.771Z,18.57
2023-06-22T01:36:37.795Z,18.53
2023-06-22T01:39:07.946Z,18.49
2023-06-22T01:41:39.503Z,18.44
2023-06-22T01:44:11.186Z,18.38
2023-06-22T01:46:40.774Z,18.37
2023-06-22T01:49:10.612Z,18.35
2023-06-22T01:51:38.801Z,18.36
2023-06-22T01:54:09.422Z,18.36
2023-06-22T01:56:38.144Z,18.36
2023-06-22T01:59:14.428Z,18.36
2023-06-22T02:01:46.761Z,18.35
2023-06-22T02:04:21.559Z,18.35
2023-06-22T02:06:57.060Z,18.33
2023-06-22T02:09:27.822Z,18.30
2023-06-22T02:11:59.099Z,18.29
2023-06-22T02:14:29.819Z,18.30
2023-06-22T02:17:00.257Z,18.26
2023-06-22T02:19:34.460Z,18.23
2023-06-22T02:22:02.775Z,18.22
2023-06-22T02:24:34.574Z,18.21
2023-06-22T02:27:04.163Z,18.20
2023-06-22T02:29:33.796Z,18.23
2023-06-22T02:32:02.149Z,18.23
2023-06-22T02:34:30.997Z,18.23
2023-06-22T02:37:03.674Z,18.22
2023-06-22T02:39:31.975Z,18.20
2023-06-22T02:42:00.186Z,18.15
2023-06-22T02:44:28.514Z,18.14
2023-06-22T02:46:58.334Z,18.13
2023-06-22T02:49:26.645Z,18.13
2023-06-22T02:51:56.211Z,18.10
2023-06-22T02:54:24.487Z,18.11
2023-06-22T02:56:53.116Z,18.09
2023-06-22T02:59:24.661Z,18.09
2023-06-22T03:01:53.729Z,18.10
2023-06-22T03:04:23.326Z,18.11
2023-06-22T03:06:52.521Z,18.11
2023-06-22T03:09:21.000Z,18.11
2023-06-22T03:11:49.161Z,18.10
2023-06-22T03:14:17.362Z,18.10
2023-06-22T03:16:45.569Z,18.09
2023-06-22T03:19:13.746Z,18.08
2023-06-22T03:21:43.425Z,18.09
2023-06-22T03:24:11.649Z,18.06
2023-06-22T03:26:39.929Z,18.01
2023-06-22T03:29:08.202Z,17.97
2023-06-22T03:31:36.532Z,17.94
2023-06-22T03:34:04.927Z,17.95
2023-06-22T03:36:33.157Z,17.96
2023-06-22T03:39:02.878Z,17.94
2023-06-22T03:41:31.129Z,17.91
2023-06-22T03:43:59.457Z,17.91
2023-06-22T03:46:28.119Z,17.88
2023-06-22T03:48:56.277Z,17.84
2023-06-22T03:51:24.596Z,17.82
2023-06-22T03:53:52.793Z,17.82
2023-06-22T03:56:22.429Z,17.84
2023-06-22T03:58:52.745Z,17.87
2023-06-22T04:01:21.336Z,17.88
2023-06-22T04:03:50.872Z,17.83
2023-06-22T04:06:19.148Z,17.83
2023-06-22T04:08:52.306Z,17.83
2023-06-22T04:11:22.275Z,17.83
2023-06-22T04:13:52.635Z,17.83
2023-06-22T04:16:20.892Z,17.82
2023-06-22T04:18:49.202Z,17.81
2023-06-22T04:21:17.418Z,17.80
2023-06-22T04:23:47.238Z,17.81
2023-06-22T04:26:16.350Z,17.77
2023-06-22T04:28:52.929Z,17.80
2023-06-22T04:31:21.334Z,17.82
2023-06-22T04:33:49.517Z,17.88
2023-06-22T04:36:17.735Z,17.94
2023-06-22T04:38:46.221Z,18.01
2023-06-22T04:41:24.981Z,18.05
2023-06-22T04:43:58.752Z,18.09
2023-06-22T04:46:26.986Z,18.10
2023-06-22T04:48:55.166Z,18.10
2023-06-22T04:51:23.846Z,18.18
2023-06-22T04:53:52.115Z,18.23
2023-06-22T04:56:23.040Z,18.26
2023-06-22T04:58:52.871Z,18.26
2023-06-22T05:01:23.284Z,18.25
2023-06-22T05:03:51.548Z,18.26
2023-06-22T05:06:20.106Z,18.30
2023-06-22T05:08:48.419Z,18.33
2023-06-22T05:11:16.580Z,18.34
2023-06-22T05:13:44.893Z,18.35
2023-06-22T05:16:13.104Z,18.43
2023-06-22T05:18:43.117Z,18.51
2023-06-22T05:21:11.510Z,18.58
2023-06-22T05:23:39.719Z,18.86
2023-06-22T05:26:10.707Z,19.30
2023-06-22T05:28:38.931Z,19.72
2023-06-22T05:31:07.133Z,20.11
2023-06-22T05:33:35.595Z,20.50
2023-06-22T05:36:05.570Z,20.88
2023-06-22T05:38:33.816Z,21.22
2023-06-22T05:41:02.735Z,21.52
2023-06-22T05:43:31.010Z,21.80
2023-06-22T05:45:59.942Z,21.90
2023-06-22T05:48:28.083Z,21.93
2023-06-22T05:50:56.723Z,21.92
2023-06-22T05:53:26.498Z,22.03
2023-06-22T05:55:54.744Z,22.11
2023-06-22T05:58:22.995Z,22.22
2023-06-22T06:00:51.376Z,22.37
2023-06-22T06:03:19.577Z,22.50
2023-06-22T06:05:47.849Z,22.68
2023-06-22T06:08:16.361Z,22.85
2023-06-22T06:10:45.993Z,22.96
2023-06-22T06:13:14.320Z,23.01
2023-06-22T06:15:42.686Z,23.00
2023-06-22T06:18:10.933Z,23.08
2023-06-22T06:20:39.329Z,23.16
2023-06-22T06:23:07.587Z,23.24
2023-06-22T06:25:35.846Z,23.31
2023-06-22T06:28:06.136Z,23.36
2023-06-22T06:30:34.811Z,23.36
2023-06-22T06:33:03.214Z,23.48
2023-06-22T06:35:31.906Z,23.49
2023-06-22T06:38:00.200Z,23.48
2023-06-22T06:40:28.816Z,23.23
2023-06-22T06:42:57.666Z,22.93
2023-06-22T06:45:29.728Z,22.94
2023-06-22T06:47:58.001Z,22.99
2023-06-22T06:50:26.340Z,23.05
2023-06-22T06:52:54.679Z,23.19
2023-06-22T06:55:25.324Z,23.15
2023-06-22T06:57:53.761Z,23.14
2023-06-22T07:00:23.333Z,23.14
2023-06-22T07:02:53.050Z,23.20
2023-06-22T07:05:21.512Z,23.33
2023-06-22T07:07:50.230Z,23.40
2023-06-22T07:10:18.495Z,23.51
2023-06-22T07:12:46.599Z,23.55
2023-06-22T07:15:15.862Z,23.53
2023-06-22T07:17:44.067Z,23.42
2023-06-22T07:20:15.088Z,23.42
2023-06-22T07:22:45.869Z,23.31
2023-06-22T07:25:16.757Z,23.26
2023-06-22T07:27:58.677Z,23.14
2023-06-22T07:30:27.376Z,23.05
2023-06-22T07:32:56.126Z,22.90
2023-06-22T07:35:26.328Z,22.74
2023-06-22T07:37:54.487Z,22.59
2023-06-22T07:40:22.771Z,22.38
2023-06-22T07:42:52.886Z,22.30
2023-06-22T07:45:21.449Z,22.28
2023-06-22T07:47:49.670Z,22.08
2023-06-22T07:50:18.099Z,21.87
2023-06-22T07:52:48.661Z,21.76
2023-06-22T07:55:16.993Z,21.66
2023-06-22T07:57:45.250Z,21.51
2023-06-22T08:00:16.526Z,21.43
2023-06-22T08:02:48.350Z,21.38
2023-06-22T08:05:22.483Z,21.22
2023-06-22T08:07:52.706Z,21.08
2023-06-22T08:10:21.538Z,21.04
2023-06-22T08:12:49.940Z,21.05
2023-06-22T08:15:18.413Z,20.98
2023-06-22T08:17:47.352Z,20.98
2023-06-22T08:20:15.763Z,20.93
2023-06-22T08:22:44.920Z,20.89
2023-06-22T08:25:15.698Z,20.89
2023-06-22T08:27:48.219Z,20.90
2023-06-22T08:30:17.209Z,20.83
2023-06-22T08:32:45.410Z,20.90
2023-06-22T08:35:16.180Z,20.92
2023-06-22T08:37:44.538Z,20.87
2023-06-22T08:40:14.884Z,20.81
2023-06-22T08:42:43.719Z,20.86
2023-06-22T08:45:21.960Z,20.92
2023-06-22T08:47:50.152Z,21.00
2023-06-22T08:50:18.424Z,20.99
2023-06-22T08:52:47.065Z,21.02
2023-06-22T08:55:16.691Z,21.05
2023-06-22T08:57:45.194Z,21.03
2023-06-22T09:00:18.860Z,21.03
2023-06-22T09:02:47.953Z,21.03
2023-06-22T09:05:17.185Z,21.05
2023-06-22T09:07:45.783Z,21.07
2023-06-22T09:10:14.048Z,21.11
2023-06-22T09:12:46.757Z,21.20
2023-06-22T09:15:17.470Z,21.26
2023-06-22T09:17:47.890Z,21.31
2023-06-22T09:20:16.908Z,21.32
2023-06-22T09:22:45.117Z,21.27
2023-06-22T09:25:13.791Z,21.34
2023-06-22T09:27:43.373Z,21.42
2023-06-22T09:30:12.115Z,21.49
2023-06-22T09:32:40.472Z,21.52
2023-06-22T09:35:11.101Z,21.60
2023-06-22T09:37:39.464Z,21.62
2023-06-22T09:40:12.544Z,21.61
2023-06-22T09:42:41.086Z,21.67
2023-06-22T09:45:11.758Z,21.72
2023-06-22T09:47:40.131Z,21.77
2023-06-22T09:50:09.828Z,21.73
2023-06-22T09:55:10.139Z,21.70
2023-06-22T09:57:38.762Z,21.75
2023-06-22T10:00:12.890Z,21.74
2023-06-22T10:02:43.615Z,21.81
2023-06-22T10:05:12.492Z,21.82
2023-06-22T10:07:44.714Z,21.86
2023-06-22T10:10:14.539Z,21.91
2023-06-22T10:12:45.401Z,21.94
2023-06-22T10:15:13.678Z,21.96
2023-06-22T10:17:43.836Z,21.96
2023-06-22T10:20:15.320Z,21.89
2023-06-22T10:22:45.103Z,21.94
2023-06-22T10:25:15.037Z,22.12
2023-06-22T10:27:43.392Z,22.31
2023-06-22T10:30:14.103Z,22.28
2023-06-22T10:32:45.334Z,22.32
2023-06-22T10:35:26.271Z,22.39
2023-06-22T10:37:55.735Z,22.58
2023-06-22T10:40:23.848Z,22.67
2023-06-22T10:42:52.373Z,22.68
2023-06-22T10:45:20.656Z,22.66
2023-06-22T10:47:50.531Z,22.64
2023-06-22T10:50:18.890Z,22.58
2023-06-22T10:52:47.041Z,22.50
2023-06-22T10:55:15.240Z,22.49
2023-06-22T10:57:45.564Z,22.38
2023-06-22T11:00:15.491Z,22.43
2023-06-22T11:02:44.137Z,22.52
2023-06-22T11:05:13.904Z,22.61
2023-06-22T11:10:18.267Z,22.66
2023-06-22T11:12:46.540Z,22.70
2023-06-22T11:15:15.193Z,22.68
2023-06-22T11:17:43.425Z,22.82
2023-06-22T11:20:14.103Z,22.95
2023-06-22T11:22:42.965Z,22.92
2023-06-22T11:25:12.880Z,23.04
2023-06-22T11:27:41.835Z,23.19
2023-06-22T11:30:10.993Z,23.20
2023-06-22T11:32:39.348Z,23.30
2023-06-22T11:35:08.324Z,23.34
2023-06-22T11:37:38.126Z,23.27
2023-06-22T11:40:10.071Z,23.19
2023-06-22T11:42:38.337Z,23.24
2023-06-22T11:45:10.046Z,23.35
2023-06-22T11:47:38.785Z,23.26
2023-06-22T11:50:08.670Z,23.26
2023-06-22T11:52:38.547Z,23.43
2023-06-22T11:55:08.111Z,23.47
2023-06-22T11:57:38.126Z,23.56
2023-06-22T12:00:17.520Z,23.58
2023-06-22T12:02:46.437Z,23.68
2023-06-22T12:05:14.858Z,23.74
2023-06-22T12:07:44.687Z,23.80
2023-06-22T12:10:13.125Z,23.58
2023-06-22T12:12:42.732Z,23.61
2023-06-22T12:15:12.861Z,23.73
2023-06-22T12:17:41.177Z,23.54
2023-06-22T12:20:10.525Z,23.55
2023-06-22T12:22:39.776Z,23.65
2023-06-22T12:25:10.220Z,23.53
2023-06-22T12:27:39.047Z,23.70
2023-06-22T12:30:08.298Z,23.75
2023-06-22T12:32:36.661Z,23.61
2023-06-22T12:35:05.421Z,23.59
2023-06-22T12:37:34.994Z,23.73
2023-06-22T12:40:04.933Z,23.78
2023-06-22T12:42:34.579Z,23.66
2023-06-22T12:45:02.822Z,23.62
2023-06-22T12:47:31.043Z,23.65
2023-06-22T12:49:59.330Z,23.76
2023-06-22T12:52:27.721Z,23.79
2023-06-22T12:54:56.343Z,23.78
2023-06-22T12:57:24.745Z,23.75
2023-06-22T12:59:54.433Z,23.52
2023-06-22T13:02:22.710Z,23.63
2023-06-22T13:04:50.934Z,23.79
2023-06-22T13:07:23.400Z,23.83
2023-06-22T13:09:53.857Z,23.78
2023-06-22T13:12:23.020Z,23.50
2023-06-22T13:14:51.628Z,23.61
2023-06-22T13:17:21.620Z,23.67
2023-06-22T13:19:49.942Z,23.55
2023-06-22T13:22:30.430Z,23.52
2023-06-22T13:24:59.016Z,23.42
2023-06-22T13:27:27.373Z,23.46
2023-06-22T13:29:56.003Z,23.49
2023-06-22T13:32:25.642Z,23.38
2023-06-22T13:34:55.126Z,23.34
2023-06-22T13:37:23.269Z,23.38
2023-06-22T13:39:51.561Z,23.49
2023-06-22T13:42:20.314Z,23.45
2023-06-22T13:44:48.527Z,23.24
2023-06-22T13:47:17.041Z,23.25
2023-06-22T13:49:46.582Z,23.46
2023-06-22T13:52:14.731Z,23.49
2023-06-22T13:54:42.873Z,23.53
2023-06-22T13:57:11.199Z,23.60
2023-06-22T13:59:39.406Z,23.54
2023-06-22T14:02:08.296Z,23.83
2023-06-22T14:04:36.545Z,23.88
2023-06-22T14:07:06.728Z,23.67
2023-06-22T14:09:34.949Z,23.63
2023-06-22T14:12:07.158Z,23.51
2023-06-22T14:14:35.662Z,23.59
2023-06-22T14:17:04.066Z,23.58
2023-06-22T14:19:32.625Z,23.32
2023-06-22T14:22:00.925Z,23.29
2023-06-22T14:24:31.273Z,23.46
2023-06-22T14:27:00.274Z,23.44
2023-06-22T14:29:28.627Z,23.38
2023-06-22T14:31:56.914Z,23.37
2023-06-22T14:34:25.252Z,23.34
2023-06-22T14:36:53.831Z,23.19
2023-06-22T14:39:22.725Z,23.44
2023-06-22T14:41:52.328Z,23.21
2023-06-22T14:44:20.616Z,23.31
2023-06-22T14:46:48.793Z,23.06
2023-06-22T14:49:17.016Z,22.75
2023-06-22T14:51:45.264Z,22.38
2023-06-22T14:54:13.452Z,21.95
2023-06-22T14:56:42.232Z,21.83
2023-06-22T14:59:12.158Z,21.98
2023-06-22T15:01:42.042Z,22.26
2023-06-22T15:04:10.495Z,22.26
2023-06-22T15:06:38.712Z,22.32
2023-06-22T15:09:06.968Z,22.50
2023-06-22T15:11:35.205Z,22.51
2023-06-22T15:14:03.409Z,22.51
2023-06-22T15:16:33.112Z,22.56
2023-06-22T15:19:01.293Z,22.23
2023-06-22T15:21:29.483Z,22.26
2023-06-22T15:23:57.974Z,22.25
2023-06-22T15:26:26.131Z,22.34
2023-06-22T15:28:55.233Z,22.43
2023-06-22T15:31:23.631Z,22.31
2023-06-22T15:33:53.407Z,22.11
2023-06-22T15:36:21.696Z,22.19
2023-06-22T15:38:49.896Z,22.11
2023-06-22T15:41:18.645Z,21.96
2023-06-22T15:43:46.790Z,21.84
2023-06-22T15:46:17.280Z,21.60
2023-06-22T15:48:46.794Z,21.57
2023-06-22T15:51:18.125Z,21.65
2023-06-22T15:53:46.313Z,21.56
2023-06-22T15:56:14.547Z,21.51
2023-06-22T15:58:42.880Z,21.40
2023-06-22T16:01:11.176Z,21.30
2023-06-22T16:03:40.291Z,21.18
2023-06-22T16:06:09.062Z,21.06
2023-06-22T16:08:38.664Z,20.91
2023-06-22T16:11:07.029Z,20.84
2023-06-22T16:13:35.537Z,20.81
2023-06-22T16:16:03.687Z,20.81
2023-06-22T16:18:31.898Z,20.71
2023-06-22T16:21:00.148Z,20.68
2023-06-22T16:23:28.509Z,20.64
2023-06-22T16:25:58.152Z,20.59
2023-06-22T16:28:26.709Z,20.85
2023-06-22T16:30:54.947Z,20.95
2023-06-22T16:33:23.188Z,21.14
2023-06-22T16:35:51.488Z,21.17
2023-06-22T16:38:19.697Z,21.16
2023-06-22T16:40:47.952Z,21.41
2023-06-22T16:43:17.750Z,21.46
2023-06-22T16:45:45.992Z,21.46
2023-06-22T16:48:14.273Z,21.39
2023-06-22T16:50:42.624Z,21.29
2023-06-22T16:53:11.334Z,21.17
2023-06-22T16:55:40.468Z,21.24
2023-06-22T16:58:08.909Z,21.28
2023-06-22T17:00:38.599Z,21.25
2023-06-22T17:03:11.897Z,21.09
2023-06-22T17:05:41.174Z,20.90
2023-06-22T17:08:12.706Z,20.76
2023-06-22T17:10:40.653Z,20.23
2023-06-22T17:13:09.758Z,20.17
2023-06-22T17:15:41.751Z,20.05
2023-06-22T17:18:11.383Z,19.96
2023-06-22T17:20:39.682Z,19.72
2023-06-22T17:23:08.024Z,19.57
2023-06-22T17:25:37.128Z,19.24
2023-06-22T17:28:05.523Z,19.19
2023-06-22T17:30:34.131Z,19.13
2023-06-22T17:33:04.632Z,19.06
2023-06-22T17:35:33.504Z,19.06
2023-06-22T17:38:02.528Z,18.94
2023-06-22T17:40:31.870Z,18.98
2023-06-22T17:43:06.781Z,18.94
2023-06-22T17:45:43.425Z,18.79
2023-06-22T17:48:13.624Z,18.93
2023-06-22T17:50:42.882Z,19.08
2023-06-22T17:53:12.557Z,19.04
2023-06-22T17:55:41.074Z,19.05
2023-06-22T17:58:09.627Z,19.03
2023-06-22T18:00:38.441Z,19.04
2023-06-22T18:03:06.969Z,18.86
2023-06-22T18:05:40.452Z,18.93
2023-06-22T18:08:09.190Z,19.00
2023-06-22T18:10:39.121Z,19.10
2023-06-22T18:13:07.928Z,19.18
2023-06-22T18:15:38.341Z,18.96
2023-06-22T18:18:07.543Z,18.97
2023-06-22T18:20:38.984Z,18.99
2023-06-22T18:23:10.823Z,19.03
2023-06-22T18:25:40.450Z,19.00
2023-06-22T18:28:09.488Z,19.06
2023-06-22T18:30:38.830Z,19.09
2023-06-22T18:33:07.149Z,19.10
2023-06-22T18:35:38.809Z,19.18
2023-06-22T18:38:08.407Z,19.22
2023-06-22T18:40:36.816Z,19.15
2023-06-22T18:43:05.480Z,19.17
2023-06-22T18:45:35.310Z,19.19
2023-06-22T18:48:05.035Z,19.16
2023-06-22T18:50:44.239Z,19.15
2023-06-22T18:53:27.088Z,19.06
2023-06-22T18:56:13.639Z,18.89
2023-06-22T18:58:41.983Z,18.83
2023-06-22T19:01:20.572Z,18.95
2023-06-22T19:03:55.015Z,18.89
2023-06-22T19:06:58.528Z,18.80
2023-06-22T19:09:26.820Z,18.87
2023-06-22T19:12:19.978Z,18.92
2023-06-22T19:15:13.563Z,19.03
2023-06-22T19:17:44.569Z,19.20
2023-06-22T19:20:13.840Z,19.33
2023-06-22T19:22:56.248Z,19.38
2023-06-22T19:25:27.456Z,19.47
2023-06-22T19:27:56.616Z,19.51
2023-06-22T19:30:25.702Z,19.56
2023-06-22T19:32:53.993Z,19.62
2023-06-22T19:35:23.019Z,19.63
2023-06-22T19:37:52.649Z,19.63
2023-06-22T19:40:22.506Z,19.58
2023-06-22T19:42:56.826Z,19.64
2023-06-22T19:45:25.428Z,19.67
2023-06-22T19:47:53.716Z,19.65
2023-06-22T19:50:25.879Z,19.51
2023-06-22T19:52:56.871Z,19.46
2023-06-22T19:55:25.128Z,19.24
2023-06-22T19:57:53.331Z,18.99
2023-06-22T20:00:23.598Z,18.79
2023-06-22T20:02:55.364Z,18.73
2023-06-22T20:05:24.242Z,18.63
2023-06-22T20:07:52.550Z,18.64
2023-06-22T20:10:23.606Z,18.60
2023-06-22T20:12:53.102Z,18.54
2023-06-22T20:15:23.285Z,18.60
2023-06-22T20:17:58.912Z,18.62
2023-06-22T20:20:29.016Z,18.64
2023-06-22T20:22:58.701Z,18.73
2023-06-22T20:25:33.593Z,18.75
2023-06-22T20:28:07.205Z,18.79
2023-06-22T20:30:36.308Z,18.81
2023-06-22T20:33:06.921Z,18.85
2023-06-22T20:35:35.377Z,18.86
2023-06-22T20:38:03.607Z,18.89
2023-06-22T20:40:33.506Z,18.94
2023-06-22T20:43:04.018Z,18.85
2023-06-22T20:45:34.865Z,18.89
2023-06-22T20:48:05.380Z,18.76
2023-06-22T20:50:34.643Z,18.84
2023-06-22T20:53:04.930Z,18.73
2023-06-22T20:55:38.486Z,18.80
2023-06-22T20:58:07.381Z,18.82
2023-06-22T21:00:38.014Z,18.89
2023-06-22T21:03:09.516Z,18.94
2023-06-22T21:05:37.591Z,18.90
2023-06-22T21:08:06.206Z,18.93
2023-06-22T21:10:35.833Z,18.93
2023-06-22T21:13:04.020Z,18.94
2023-06-22T21:15:32.555Z,18.97
2023-06-22T21:18:00.972Z,19.01
2023-06-22T21:20:29.280Z,19.00
2023-06-22T21:22:57.545Z,18.98
2023-06-22T21:25:25.832Z,19.00
2023-06-22T21:27:55.598Z,19.00
2023-06-22T21:30:23.825Z,19.03
2023-06-22T21:32:52.069Z,19.03
2023-06-22T21:35:20.286Z,19.01
2023-06-22T21:37:48.618Z,19.04
2023-06-22T21:40:16.992Z,19.07
2023-06-22T21:42:45.102Z,19.07
2023-06-22T21:45:14.790Z,19.11
2023-06-22T21:47:43.106Z,19.10
2023-06-22T21:50:12.146Z,19.10
2023-06-22T21:52:40.276Z,19.12
2023-06-22T21:55:09.174Z,19.12
2023-06-22T21:57:37.326Z,19.06
2023-06-22T22:00:07.957Z,19.10
2023-06-22T22:02:37.886Z,19.10
2023-06-22T22:05:08.265Z,19.13
2023-06-22T22:07:36.504Z,19.12
2023-06-22T22:10:05.018Z,19.11
2023-06-22T22:12:33.174Z,19.12
2023-06-22T22:15:01.509Z,19.13
2023-06-22T22:17:29.821Z,19.13
2023-06-22T22:19:59.562Z,19.11
2023-06-22T22:22:27.790Z,19.07
2023-06-22T22:24:56.154Z,19.07
2023-06-22T22:27:24.408Z,19.07
2023-06-22T22:29:52.587Z,19.08
2023-06-22T22:32:20.832Z,19.09
2023-06-22T22:34:49.141Z,19.09
2023-06-22T22:37:18.895Z,19.11
2023-06-22T22:39:48.726Z,19.13
2023-06-22T22:42:18.452Z,19.17
2023-06-22T22:44:46.674Z,19.18
2023-06-22T22:47:14.948Z,19.19
2023-06-22T22:49:43.231Z,19.18
2023-06-22T22:52:11.849Z,19.15
2023-06-22T22:54:44.225Z,19.18
2023-06-22T22:57:12.679Z,19.18
2023-06-22T22:59:41.303Z,19.17
2023-06-22T23:02:10.246Z,19.13
2023-06-22T23:04:41.293Z,19.12
2023-06-22T23:07:09.615Z,19.11
2023-06-22T23:09:38.196Z,19.12
2023-06-22T23:12:08.844Z,19.12
2023-06-22T23:14:37.113Z,19.15
2023-06-22T23:17:05.569Z,19.16
2023-06-22T23:19:35.516Z,19.19
2023-06-22T23:22:03.819Z,19.22
2023-06-22T23:24:32.325Z,19.23
2023-06-22T23:27:00.686Z,19.23
2023-06-22T23:29:33.159Z,19.25
2023-06-22T23:32:01.814Z,19.24
2023-06-22T23:34:30.295Z,19.25
2023-06-22T23:36:58.614Z,19.28
2023-06-22T23:39:27.568Z,19.34
2023-06-22T23:41:55.910Z,19.36
2023-06-22T23:44:25.980Z,19.36
2023-06-22T23:46:59.136Z,19.33
2023-06-22T23:49:27.524Z,19.37
2023-06-22T23:51:55.704Z,19.34
2023-06-22T23:54:23.933Z,19.36
2023-06-22T23:56:53.728Z,19.35
2023-06-22T23:59:22.110Z,19.39
